sensor_id;sensor_type;location;lat;lon;timestamp;P1;durP1;ratioP1;P2;durP2;ratioP2
77055;SDS011;67471;44.918;8.614;2023-12-20T00:01:55;36.97;;;21.73;;
77055;SDS011;67471;44.918;8.614;2023-12-20T00:04:59;37.55;;;21.08;;
77055;SDS011;67471;44.918;8.614;2023-12-20T00:08:03;37.78;;;22.23;;
77055;SDS011;67471;44.918;8.614;2023-12-20T00:11:08;40.80;;;21.85;;
77055;SDS011;67471;44.918;8.614;2023-12-20T00:14:12;34.80;;;21.67;;
77055;SDS011;67471;44.918;8.614;2023-12-20T00:17:16;37.13;;;22.17;;
77055;SDS011;67471;44.918;8.614;2023-12-20T00:20:20;39.95;;;22.88;;
77055;SDS011;67471;44.918;8.614;2023-12-20T00:23:23;38.38;;;21.85;;
77055;SDS011;67471;44.918;8.614;2023-12-20T00:26:27;37.53;;;21.85;;
77055;SDS011;67471;44.918;8.614;2023-12-20T00:29:31;37.80;;;21.73;;
77055;SDS011;67471;44.918;8.614;2023-12-20T00:32:35;36.97;;;20.83;;
77055;SDS011;67471;44.918;8.614;2023-12-20T00:35:39;38.95;;;21.90;;
77055;SDS011;67471;44.918;8.614;2023-12-20T00:38:42;36.63;;;22.33;;
77055;SDS011;67471;44.918;8.614;2023-12-20T00:41:46;39.38;;;23.27;;
77055;SDS011;67471;44.918;8.614;2023-12-20T00:44:50;34.83;;;20.27;;
77055;SDS011;67471;44.918;8.614;2023-12-20T00:47:54;38.15;;;21.77;;
77055;SDS011;67471;44.918;8.614;2023-12-20T00:50:57;38.35;;;21.73;;
77055;SDS011;67471;44.918;8.614;2023-12-20T00:54:01;30.55;;;20.08;;
77055;SDS011;67471;44.918;8.614;2023-12-20T00:57:06;39.60;;;22.23;;
77055;SDS011;67471;44.918;8.614;2023-12-20T01:00:10;36.15;;;20.58;;
77055;SDS011;67471;44.918;8.614;2023-12-20T01:03:14;40.33;;;21.50;;
77055;SDS011;67471;44.918;8.614;2023-12-20T01:06:18;35.50;;;20.20;;
77055;SDS011;67471;44.918;8.614;2023-12-20T01:09:22;33.38;;;20.33;;
77055;SDS011;67471;44.918;8.614;2023-12-20T01:12:30;35.95;;;20.10;;
77055;SDS011;67471;44.918;8.614;2023-12-20T01:15:34;41.65;;;21.10;;
77055;SDS011;67471;44.918;8.614;2023-12-20T01:18:37;33.45;;;20.30;;
77055;SDS011;67471;44.918;8.614;2023-12-20T01:21:41;37.15;;;21.50;;
77055;SDS011;67471;44.918;8.614;2023-12-20T01:24:45;30.95;;;19.67;;
77055;SDS011;67471;44.918;8.614;2023-12-20T01:27:49;36.17;;;20.85;;
77055;SDS011;67471;44.918;8.614;2023-12-20T01:30:53;31.48;;;20.00;;
77055;SDS011;67471;44.918;8.614;2023-12-20T01:33:57;35.38;;;20.60;;
77055;SDS011;67471;44.918;8.614;2023-12-20T01:37:01;33.50;;;19.90;;
77055;SDS011;67471;44.918;8.614;2023-12-20T01:40:04;33.15;;;20.63;;
77055;SDS011;67471;44.918;8.614;2023-12-20T01:43:09;31.38;;;19.83;;
77055;SDS011;67471;44.918;8.614;2023-12-20T01:46:15;30.13;;;20.00;;
77055;SDS011;67471;44.918;8.614;2023-12-20T01:49:20;38.75;;;21.30;;
77055;SDS011;67471;44.918;8.614;2023-12-20T01:52:24;35.70;;;22.45;;
77055;SDS011;67471;44.918;8.614;2023-12-20T01:55:30;34.17;;;20.73;;
77055;SDS011;67471;44.918;8.614;2023-12-20T01:58:45;40.78;;;22.15;;
77055;SDS011;67471;44.918;8.614;2023-12-20T02:01:50;36.75;;;21.77;;
77055;SDS011;67471;44.918;8.614;2023-12-20T02:04:54;37.22;;;21.67;;
77055;SDS011;67471;44.918;8.614;2023-12-20T02:07:58;38.50;;;22.60;;
77055;SDS011;67471;44.918;8.614;2023-12-20T02:11:02;38.60;;;22.58;;
77055;SDS011;67471;44.918;8.614;2023-12-20T02:14:06;35.53;;;21.83;;
77055;SDS011;67471;44.918;8.614;2023-12-20T02:17:09;39.63;;;21.98;;
77055;SDS011;67471;44.918;8.614;2023-12-20T02:20:13;37.88;;;22.60;;
77055;SDS011;67471;44.918;8.614;2023-12-20T02:23:17;38.70;;;22.08;;
77055;SDS011;67471;44.918;8.614;2023-12-20T02:26:21;35.40;;;21.42;;
77055;SDS011;67471;44.918;8.614;2023-12-20T02:29:25;42.88;;;21.50;;
77055;SDS011;67471;44.918;8.614;2023-12-20T02:32:29;41.13;;;22.52;;
77055;SDS011;67471;44.918;8.614;2023-12-20T02:35:33;32.97;;;21.55;;
77055;SDS011;67471;44.918;8.614;2023-12-20T02:38:37;36.45;;;22.23;;
77055;SDS011;67471;44.918;8.614;2023-12-20T02:41:41;34.70;;;22.05;;
77055;SDS011;67471;44.918;8.614;2023-12-20T02:44:45;38.67;;;21.95;;
77055;SDS011;67471;44.918;8.614;2023-12-20T02:47:49;39.50;;;21.40;;
77055;SDS011;67471;44.918;8.614;2023-12-20T02:50:52;38.95;;;21.55;;
77055;SDS011;67471;44.918;8.614;2023-12-20T02:53:56;41.10;;;22.67;;
77055;SDS011;67471;44.918;8.614;2023-12-20T02:57:00;36.33;;;21.88;;
77055;SDS011;67471;44.918;8.614;2023-12-20T03:00:04;34.90;;;21.48;;
77055;SDS011;67471;44.918;8.614;2023-12-20T03:03:08;36.05;;;21.27;;
77055;SDS011;67471;44.918;8.614;2023-12-20T03:06:15;35.17;;;20.63;;
77055;SDS011;67471;44.918;8.614;2023-12-20T03:09:20;34.50;;;21.15;;
77055;SDS011;67471;44.918;8.614;2023-12-20T03:12:23;38.05;;;23.60;;
77055;SDS011;67471;44.918;8.614;2023-12-20T03:15:27;36.72;;;21.17;;
77055;SDS011;67471;44.918;8.614;2023-12-20T03:18:31;40.03;;;21.90;;
77055;SDS011;67471;44.918;8.614;2023-12-20T03:21:35;36.70;;;22.08;;
77055;SDS011;67471;44.918;8.614;2023-12-20T03:24:39;38.15;;;22.95;;
77055;SDS011;67471;44.918;8.614;2023-12-20T03:27:43;35.85;;;21.85;;
77055;SDS011;67471;44.918;8.614;2023-12-20T03:30:47;33.20;;;22.08;;
77055;SDS011;67471;44.918;8.614;2023-12-20T03:33:51;37.28;;;22.13;;
77055;SDS011;67471;44.918;8.614;2023-12-20T03:36:56;37.45;;;21.25;;
77055;SDS011;67471;44.918;8.614;2023-12-20T03:40:00;37.53;;;22.20;;
77055;SDS011;67471;44.918;8.614;2023-12-20T03:43:05;36.80;;;21.10;;
77055;SDS011;67471;44.918;8.614;2023-12-20T03:46:08;40.65;;;23.55;;
77055;SDS011;67471;44.918;8.614;2023-12-20T03:49:12;41.38;;;21.40;;
77055;SDS011;67471;44.918;8.614;2023-12-20T03:52:16;38.15;;;22.90;;
77055;SDS011;67471;44.918;8.614;2023-12-20T03:55:20;42.22;;;23.02;;
77055;SDS011;67471;44.918;8.614;2023-12-20T03:58:24;36.85;;;21.92;;
77055;SDS011;67471;44.918;8.614;2023-12-20T04:01:28;41.67;;;22.15;;
77055;SDS011;67471;44.918;8.614;2023-12-20T04:04:31;39.67;;;22.38;;
77055;SDS011;67471;44.918;8.614;2023-12-20T04:07:35;40.78;;;21.80;;
77055;SDS011;67471;44.918;8.614;2023-12-20T04:10:39;40.38;;;23.38;;
77055;SDS011;67471;44.918;8.614;2023-12-20T04:13:43;36.65;;;22.45;;
77055;SDS011;67471;44.918;8.614;2023-12-20T04:16:47;41.75;;;22.92;;
77055;SDS011;67471;44.918;8.614;2023-12-20T04:19:51;38.38;;;22.70;;
77055;SDS011;67471;44.918;8.614;2023-12-20T04:22:55;39.30;;;21.45;;
77055;SDS011;67471;44.918;8.614;2023-12-20T04:25:59;39.50;;;23.02;;
77055;SDS011;67471;44.918;8.614;2023-12-20T04:29:02;36.83;;;22.08;;
77055;SDS011;67471;44.918;8.614;2023-12-20T04:32:06;37.92;;;22.30;;
77055;SDS011;67471;44.918;8.614;2023-12-20T04:35:09;40.25;;;21.90;;
77055;SDS011;67471;44.918;8.614;2023-12-20T04:38:13;39.95;;;22.88;;
77055;SDS011;67471;44.918;8.614;2023-12-20T04:41:17;39.20;;;22.63;;
77055;SDS011;67471;44.918;8.614;2023-12-20T04:44:21;36.95;;;21.77;;
77055;SDS011;67471;44.918;8.614;2023-12-20T04:47:25;36.42;;;21.85;;
77055;SDS011;67471;44.918;8.614;2023-12-20T04:50:29;42.97;;;21.85;;
77055;SDS011;67471;44.918;8.614;2023-12-20T04:53:33;38.85;;;21.70;;
77055;SDS011;67471;44.918;8.614;2023-12-20T04:56:36;33.42;;;20.33;;
77055;SDS011;67471;44.918;8.614;2023-12-20T04:59:40;37.58;;;21.48;;
77055;SDS011;67471;44.918;8.614;2023-12-20T05:02:45;35.83;;;21.50;;
77055;SDS011;67471;44.918;8.614;2023-12-20T05:05:49;40.78;;;22.55;;
77055;SDS011;67471;44.918;8.614;2023-12-20T05:08:53;35.97;;;20.98;;
77055;SDS011;67471;44.918;8.614;2023-12-20T05:11:56;37.35;;;20.40;;
77055;SDS011;67471;44.918;8.614;2023-12-20T05:15:00;35.85;;;21.25;;
77055;SDS011;67471;44.918;8.614;2023-12-20T05:18:04;36.95;;;20.83;;
77055;SDS011;67471;44.918;8.614;2023-12-20T05:21:08;40.85;;;22.55;;
77055;SDS011;67471;44.918;8.614;2023-12-20T05:24:12;38.92;;;22.63;;
77055;SDS011;67471;44.918;8.614;2023-12-20T05:27:16;34.55;;;21.08;;
77055;SDS011;67471;44.918;8.614;2023-12-20T05:30:20;34.70;;;21.65;;
77055;SDS011;67471;44.918;8.614;2023-12-20T05:33:23;37.50;;;22.02;;
77055;SDS011;67471;44.918;8.614;2023-12-20T05:36:28;36.50;;;22.92;;
77055;SDS011;67471;44.918;8.614;2023-12-20T05:39:31;41.63;;;22.33;;
77055;SDS011;67471;44.918;8.614;2023-12-20T05:42:35;38.35;;;23.45;;
77055;SDS011;67471;44.918;8.614;2023-12-20T05:45:40;41.95;;;24.02;;
77055;SDS011;67471;44.918;8.614;2023-12-20T05:48:45;42.85;;;25.40;;
77055;SDS011;67471;44.918;8.614;2023-12-20T05:51:49;44.38;;;23.48;;
77055;SDS011;67471;44.918;8.614;2023-12-20T05:54:54;37.72;;;23.48;;
77055;SDS011;67471;44.918;8.614;2023-12-20T05:57:59;45.88;;;25.08;;
77055;SDS011;67471;44.918;8.614;2023-12-20T06:01:04;42.90;;;24.23;;
77055;SDS011;67471;44.918;8.614;2023-12-20T06:04:08;42.75;;;24.17;;
77055;SDS011;67471;44.918;8.614;2023-12-20T06:07:12;54.58;;;27.77;;
77055;SDS011;67471;44.918;8.614;2023-12-20T06:10:16;41.60;;;25.42;;
77055;SDS011;67471;44.918;8.614;2023-12-20T06:13:20;42.05;;;25.17;;
77055;SDS011;67471;44.918;8.614;2023-12-20T06:16:24;39.33;;;23.27;;
77055;SDS011;67471;44.918;8.614;2023-12-20T06:19:28;36.13;;;22.38;;
77055;SDS011;67471;44.918;8.614;2023-12-20T06:22:32;43.00;;;24.20;;
77055;SDS011;67471;44.918;8.614;2023-12-20T06:25:37;41.75;;;24.38;;
77055;SDS011;67471;44.918;8.614;2023-12-20T06:28:41;43.92;;;23.17;;
77055;SDS011;67471;44.918;8.614;2023-12-20T06:31:45;40.88;;;23.02;;
77055;SDS011;67471;44.918;8.614;2023-12-20T06:34:48;38.22;;;24.52;;
77055;SDS011;67471;44.918;8.614;2023-12-20T06:37:52;40.85;;;23.85;;
77055;SDS011;67471;44.918;8.614;2023-12-20T06:40:56;41.65;;;25.45;;
77055;SDS011;67471;44.918;8.614;2023-12-20T06:44:01;39.63;;;23.42;;
77055;SDS011;67471;44.918;8.614;2023-12-20T06:47:05;42.53;;;24.15;;
77055;SDS011;67471;44.918;8.614;2023-12-20T06:50:09;46.72;;;27.48;;
77055;SDS011;67471;44.918;8.614;2023-12-20T06:53:12;46.58;;;25.15;;
77055;SDS011;67471;44.918;8.614;2023-12-20T06:56:16;40.75;;;23.77;;
77055;SDS011;67471;44.918;8.614;2023-12-20T06:59:20;46.00;;;24.00;;
77055;SDS011;67471;44.918;8.614;2023-12-20T07:02:24;42.72;;;24.10;;
77055;SDS011;67471;44.918;8.614;2023-12-20T07:05:28;42.20;;;23.58;;
77055;SDS011;67471;44.918;8.614;2023-12-20T07:08:31;41.05;;;24.80;;
77055;SDS011;67471;44.918;8.614;2023-12-20T07:11:35;41.10;;;25.83;;
77055;SDS011;67471;44.918;8.614;2023-12-20T07:14:39;43.05;;;24.25;;
77055;SDS011;67471;44.918;8.614;2023-12-20T07:17:43;42.20;;;25.30;;
77055;SDS011;67471;44.918;8.614;2023-12-20T07:20:47;43.30;;;25.38;;
77055;SDS011;67471;44.918;8.614;2023-12-20T07:23:51;41.38;;;25.13;;
77055;SDS011;67471;44.918;8.614;2023-12-20T07:26:55;44.67;;;25.08;;
77055;SDS011;67471;44.918;8.614;2023-12-20T07:29:59;42.30;;;25.17;;
77055;SDS011;67471;44.918;8.614;2023-12-20T07:33:03;43.95;;;25.75;;
77055;SDS011;67471;44.918;8.614;2023-12-20T07:36:07;47.90;;;25.88;;
77055;SDS011;67471;44.918;8.614;2023-12-20T07:39:11;48.90;;;25.02;;
77055;SDS011;67471;44.918;8.614;2023-12-20T07:42:15;41.33;;;24.33;;
77055;SDS011;67471;44.918;8.614;2023-12-20T07:45:19;41.97;;;25.15;;
77055;SDS011;67471;44.918;8.614;2023-12-20T07:48:23;46.28;;;24.15;;
77055;SDS011;67471;44.918;8.614;2023-12-20T07:51:27;41.17;;;23.92;;
77055;SDS011;67471;44.918;8.614;2023-12-20T07:54:31;42.33;;;24.20;;
77055;SDS011;67471;44.918;8.614;2023-12-20T07:57:34;39.00;;;23.58;;
77055;SDS011;67471;44.918;8.614;2023-12-20T08:00:38;43.00;;;24.38;;
77055;SDS011;67471;44.918;8.614;2023-12-20T08:03:42;41.38;;;24.50;;
77055;SDS011;67471;44.918;8.614;2023-12-20T08:06:46;48.35;;;25.02;;
77055;SDS011;67471;44.918;8.614;2023-12-20T08:09:50;43.25;;;24.70;;
77055;SDS011;67471;44.918;8.614;2023-12-20T08:12:54;38.75;;;23.90;;
77055;SDS011;67471;44.918;8.614;2023-12-20T08:15:58;41.47;;;23.65;;
77055;SDS011;67471;44.918;8.614;2023-12-20T08:19:02;42.83;;;25.17;;
77055;SDS011;67471;44.918;8.614;2023-12-20T08:22:06;38.65;;;23.10;;
77055;SDS011;67471;44.918;8.614;2023-12-20T08:25:10;42.00;;;24.58;;
77055;SDS011;67471;44.918;8.614;2023-12-20T08:28:14;45.20;;;25.25;;
77055;SDS011;67471;44.918;8.614;2023-12-20T08:31:18;41.08;;;24.17;;
77055;SDS011;67471;44.918;8.614;2023-12-20T08:34:23;38.20;;;22.75;;
77055;SDS011;67471;44.918;8.614;2023-12-20T08:37:27;40.47;;;23.75;;
77055;SDS011;67471;44.918;8.614;2023-12-20T08:40:30;41.80;;;23.83;;
77055;SDS011;67471;44.918;8.614;2023-12-20T08:43:34;41.67;;;24.45;;
77055;SDS011;67471;44.918;8.614;2023-12-20T08:46:39;40.40;;;25.05;;
77055;SDS011;67471;44.918;8.614;2023-12-20T08:49:42;37.15;;;22.48;;
77055;SDS011;67471;44.918;8.614;2023-12-20T08:52:49;41.33;;;24.50;;
77055;SDS011;67471;44.918;8.614;2023-12-20T08:55:53;38.95;;;23.45;;
77055;SDS011;67471;44.918;8.614;2023-12-20T08:58:57;39.95;;;24.02;;
77055;SDS011;67471;44.918;8.614;2023-12-20T09:02:01;43.53;;;25.17;;
77055;SDS011;67471;44.918;8.614;2023-12-20T09:05:05;41.75;;;25.02;;
77055;SDS011;67471;44.918;8.614;2023-12-20T09:08:09;39.60;;;23.50;;
77055;SDS011;67471;44.918;8.614;2023-12-20T09:11:13;39.80;;;23.75;;
77055;SDS011;67471;44.918;8.614;2023-12-20T09:14:17;40.28;;;23.85;;
77055;SDS011;67471;44.918;8.614;2023-12-20T09:17:21;41.38;;;25.13;;
77055;SDS011;67471;44.918;8.614;2023-12-20T09:20:26;37.38;;;25.88;;
77055;SDS011;67471;44.918;8.614;2023-12-20T09:23:30;38.08;;;24.02;;
77055;SDS011;67471;44.918;8.614;2023-12-20T09:26:34;40.50;;;26.00;;
77055;SDS011;67471;44.918;8.614;2023-12-20T09:29:38;37.42;;;23.88;;
77055;SDS011;67471;44.918;8.614;2023-12-20T09:32:42;35.60;;;23.45;;
77055;SDS011;67471;44.918;8.614;2023-12-20T09:35:46;40.50;;;23.15;;
77055;SDS011;67471;44.918;8.614;2023-12-20T09:38:50;36.88;;;23.65;;
77055;SDS011;67471;44.918;8.614;2023-12-20T09:41:59;38.80;;;24.08;;
77055;SDS011;67471;44.918;8.614;2023-12-20T09:45:07;44.13;;;25.45;;
77055;SDS011;67471;44.918;8.614;2023-12-20T09:48:13;42.28;;;25.98;;
77055;SDS011;67471;44.918;8.614;2023-12-20T09:51:19;42.25;;;26.52;;
77055;SDS011;67471;44.918;8.614;2023-12-20T09:54:23;44.67;;;25.92;;
77055;SDS011;67471;44.918;8.614;2023-12-20T09:57:29;41.35;;;25.63;;
77055;SDS011;67471;44.918;8.614;2023-12-20T10:00:33;45.92;;;27.05;;
77055;SDS011;67471;44.918;8.614;2023-12-20T10:03:40;38.50;;;25.20;;
77055;SDS011;67471;44.918;8.614;2023-12-20T10:06:44;45.35;;;25.13;;
77055;SDS011;67471;44.918;8.614;2023-12-20T10:09:48;42.13;;;25.88;;
77055;SDS011;67471;44.918;8.614;2023-12-20T10:13:05;41.25;;;23.92;;
77055;SDS011;67471;44.918;8.614;2023-12-20T10:16:11;41.67;;;23.90;;
77055;SDS011;67471;44.918;8.614;2023-12-20T10:19:19;81.47;;;42.00;;
77055;SDS011;67471;44.918;8.614;2023-12-20T10:22:23;36.28;;;25.48;;
77055;SDS011;67471;44.918;8.614;2023-12-20T10:25:26;38.38;;;23.48;;
77055;SDS011;67471;44.918;8.614;2023-12-20T10:28:34;38.60;;;24.00;;
77055;SDS011;67471;44.918;8.614;2023-12-20T10:31:38;41.72;;;24.08;;
77055;SDS011;67471;44.918;8.614;2023-12-20T10:34:42;41.70;;;23.45;;
77055;SDS011;67471;44.918;8.614;2023-12-20T10:37:46;38.75;;;24.95;;
77055;SDS011;67471;44.918;8.614;2023-12-20T10:40:50;37.60;;;24.35;;
77055;SDS011;67471;44.918;8.614;2023-12-20T10:44:00;43.55;;;25.15;;
77055;SDS011;67471;44.918;8.614;2023-12-20T10:47:05;36.88;;;25.05;;
77055;SDS011;67471;44.918;8.614;2023-12-20T10:50:10;43.50;;;26.45;;
77055;SDS011;67471;44.918;8.614;2023-12-20T10:53:14;44.42;;;26.63;;
77055;SDS011;67471;44.918;8.614;2023-12-20T10:56:19;41.83;;;27.10;;
77055;SDS011;67471;44.918;8.614;2023-12-20T10:59:24;43.63;;;24.45;;
77055;SDS011;67471;44.918;8.614;2023-12-20T11:02:34;40.72;;;26.60;;
77055;SDS011;67471;44.918;8.614;2023-12-20T11:15:43;43.40;;;26.73;;
77055;SDS011;67471;44.918;8.614;2023-12-20T11:18:47;40.90;;;27.20;;
77055;SDS011;67471;44.918;8.614;2023-12-20T11:21:54;44.30;;;27.80;;
77055;SDS011;67471;44.918;8.614;2023-12-20T11:24:58;44.45;;;27.77;;
77055;SDS011;67471;44.918;8.614;2023-12-20T11:28:07;40.60;;;26.58;;
77055;SDS011;67471;44.918;8.614;2023-12-20T11:31:14;42.95;;;27.25;;
77055;SDS011;67471;44.918;8.614;2023-12-20T11:34:19;45.63;;;26.90;;
77055;SDS011;67471;44.918;8.614;2023-12-20T11:37:25;43.75;;;26.92;;
77055;SDS011;67471;44.918;8.614;2023-12-20T11:40:35;42.70;;;27.02;;
77055;SDS011;67471;44.918;8.614;2023-12-20T11:43:39;42.42;;;27.80;;
77055;SDS011;67471;44.918;8.614;2023-12-20T11:46:44;46.78;;;28.02;;
77055;SDS011;67471;44.918;8.614;2023-12-20T11:49:47;41.30;;;27.35;;
77055;SDS011;67471;44.918;8.614;2023-12-20T11:52:52;40.05;;;26.20;;
77055;SDS011;67471;44.918;8.614;2023-12-20T11:55:57;40.25;;;25.38;;
77055;SDS011;67471;44.918;8.614;2023-12-20T11:59:01;38.05;;;25.55;;
77055;SDS011;67471;44.918;8.614;2023-12-20T12:02:05;40.65;;;26.63;;
77055;SDS011;67471;44.918;8.614;2023-12-20T12:05:09;38.85;;;27.10;;
77055;SDS011;67471;44.918;8.614;2023-12-20T12:08:12;41.50;;;26.25;;
77055;SDS011;67471;44.918;8.614;2023-12-20T12:11:16;37.35;;;25.95;;
77055;SDS011;67471;44.918;8.614;2023-12-20T12:14:20;39.85;;;26.48;;
77055;SDS011;67471;44.918;8.614;2023-12-20T12:17:24;40.17;;;25.75;;
77055;SDS011;67471;44.918;8.614;2023-12-20T12:20:28;36.58;;;25.35;;
77055;SDS011;67471;44.918;8.614;2023-12-20T12:23:33;39.65;;;25.55;;
77055;SDS011;67471;44.918;8.614;2023-12-20T12:26:37;38.13;;;26.70;;
77055;SDS011;67471;44.918;8.614;2023-12-20T12:29:43;37.30;;;25.73;;
77055;SDS011;67471;44.918;8.614;2023-12-20T12:33:04;40.88;;;27.48;;
77055;SDS011;67471;44.918;8.614;2023-12-20T12:36:08;40.83;;;26.80;;
77055;SDS011;67471;44.918;8.614;2023-12-20T12:39:12;40.28;;;27.00;;
77055;SDS011;67471;44.918;8.614;2023-12-20T12:42:18;38.20;;;24.25;;
77055;SDS011;67471;44.918;8.614;2023-12-20T12:45:22;42.55;;;25.25;;
77055;SDS011;67471;44.918;8.614;2023-12-20T12:48:28;30.77;;;21.77;;
77055;SDS011;67471;44.918;8.614;2023-12-20T12:51:32;37.95;;;23.80;;
77055;SDS011;67471;44.918;8.614;2023-12-20T12:54:35;36.17;;;25.13;;
77055;SDS011;67471;44.918;8.614;2023-12-20T12:57:40;34.05;;;21.98;;
77055;SDS011;67471;44.918;8.614;2023-12-20T13:00:43;36.35;;;23.35;;
77055;SDS011;67471;44.918;8.614;2023-12-20T13:03:47;37.63;;;24.13;;
77055;SDS011;67471;44.918;8.614;2023-12-20T13:06:51;34.53;;;23.70;;
77055;SDS011;67471;44.918;8.614;2023-12-20T13:09:55;38.10;;;22.83;;
77055;SDS011;67471;44.918;8.614;2023-12-20T13:12:59;34.47;;;24.70;;
77055;SDS011;67471;44.918;8.614;2023-12-20T13:16:02;33.95;;;22.65;;
77055;SDS011;67471;44.918;8.614;2023-12-20T13:19:06;36.17;;;24.02;;
77055;SDS011;67471;44.918;8.614;2023-12-20T13:22:10;44.13;;;27.60;;
77055;SDS011;67471;44.918;8.614;2023-12-20T13:25:13;39.88;;;25.25;;
77055;SDS011;67471;44.918;8.614;2023-12-20T13:28:17;42.40;;;25.95;;
77055;SDS011;67471;44.918;8.614;2023-12-20T13:31:21;34.17;;;22.70;;
77055;SDS011;67471;44.918;8.614;2023-12-20T13:34:25;33.63;;;22.58;;
77055;SDS011;67471;44.918;8.614;2023-12-20T13:37:29;32.95;;;21.38;;
77055;SDS011;67471;44.918;8.614;2023-12-20T13:40:33;31.27;;;20.88;;
77055;SDS011;67471;44.918;8.614;2023-12-20T13:43:36;32.60;;;20.30;;
77055;SDS011;67471;44.918;8.614;2023-12-20T13:46:40;30.35;;;20.02;;
77055;SDS011;67471;44.918;8.614;2023-12-20T13:49:44;28.42;;;20.20;;
77055;SDS011;67471;44.918;8.614;2023-12-20T13:52:48;31.17;;;20.02;;
77055;SDS011;67471;44.918;8.614;2023-12-20T13:55:52;28.80;;;20.00;;
77055;SDS011;67471;44.918;8.614;2023-12-20T13:58:56;31.95;;;21.33;;
77055;SDS011;67471;44.918;8.614;2023-12-20T14:02:00;31.40;;;20.13;;
77055;SDS011;67471;44.918;8.614;2023-12-20T14:05:04;32.83;;;22.08;;
77055;SDS011;67471;44.918;8.614;2023-12-20T14:08:09;29.33;;;20.27;;
77055;SDS011;67471;44.918;8.614;2023-12-20T14:11:13;28.92;;;19.95;;
77055;SDS011;67471;44.918;8.614;2023-12-20T14:14:18;33.22;;;21.73;;
77055;SDS011;67471;44.918;8.614;2023-12-20T14:17:22;32.00;;;21.48;;
77055;SDS011;67471;44.918;8.614;2023-12-20T14:20:26;30.13;;;20.42;;
77055;SDS011;67471;44.918;8.614;2023-12-20T14:23:30;33.58;;;21.67;;
77055;SDS011;67471;44.918;8.614;2023-12-20T14:26:33;27.38;;;19.80;;
77055;SDS011;67471;44.918;8.614;2023-12-20T14:29:37;27.05;;;20.33;;
77055;SDS011;67471;44.918;8.614;2023-12-20T14:32:41;28.30;;;19.92;;
77055;SDS011;67471;44.918;8.614;2023-12-20T14:35:45;33.00;;;21.02;;
77055;SDS011;67471;44.918;8.614;2023-12-20T14:38:49;32.55;;;21.25;;
77055;SDS011;67471;44.918;8.614;2023-12-20T14:41:53;27.52;;;20.23;;
77055;SDS011;67471;44.918;8.614;2023-12-20T14:44:57;31.88;;;21.33;;
77055;SDS011;67471;44.918;8.614;2023-12-20T14:48:01;32.65;;;22.70;;
77055;SDS011;67471;44.918;8.614;2023-12-20T14:51:05;30.00;;;21.10;;
77055;SDS011;67471;44.918;8.614;2023-12-20T14:54:09;30.73;;;20.80;;
77055;SDS011;67471;44.918;8.614;2023-12-20T14:57:13;34.58;;;22.15;;
77055;SDS011;67471;44.918;8.614;2023-12-20T15:00:17;34.25;;;22.55;;
77055;SDS011;67471;44.918;8.614;2023-12-20T15:03:22;32.72;;;21.48;;
77055;SDS011;67471;44.918;8.614;2023-12-20T15:06:26;34.05;;;22.33;;
77055;SDS011;67471;44.918;8.614;2023-12-20T15:09:30;36.78;;;24.85;;
77055;SDS011;67471;44.918;8.614;2023-12-20T15:12:34;39.00;;;25.52;;
77055;SDS011;67471;44.918;8.614;2023-12-20T15:15:38;44.53;;;29.42;;
77055;SDS011;67471;44.918;8.614;2023-12-20T15:18:41;36.95;;;27.38;;
77055;SDS011;67471;44.918;8.614;2023-12-20T15:21:45;40.50;;;27.73;;
77055;SDS011;67471;44.918;8.614;2023-12-20T15:24:49;38.53;;;27.08;;
77055;SDS011;67471;44.918;8.614;2023-12-20T15:27:55;45.72;;;27.83;;
77055;SDS011;67471;44.918;8.614;2023-12-20T15:30:59;42.13;;;27.77;;
77055;SDS011;67471;44.918;8.614;2023-12-20T15:34:02;45.75;;;27.35;;
77055;SDS011;67471;44.918;8.614;2023-12-20T15:37:06;44.42;;;29.27;;
77055;SDS011;67471;44.918;8.614;2023-12-20T15:40:10;45.08;;;29.30;;
77055;SDS011;67471;44.918;8.614;2023-12-20T15:43:15;44.40;;;29.35;;
77055;SDS011;67471;44.918;8.614;2023-12-20T15:46:19;40.47;;;28.65;;
77055;SDS011;67471;44.918;8.614;2023-12-20T15:49:23;48.38;;;30.40;;
77055;SDS011;67471;44.918;8.614;2023-12-20T15:52:26;47.28;;;30.40;;
77055;SDS011;67471;44.918;8.614;2023-12-20T15:55:30;45.88;;;30.67;;
77055;SDS011;67471;44.918;8.614;2023-12-20T15:58:34;50.72;;;30.40;;
77055;SDS011;67471;44.918;8.614;2023-12-20T16:01:38;42.55;;;28.45;;
77055;SDS011;67471;44.918;8.614;2023-12-20T16:04:42;46.92;;;30.42;;
77055;SDS011;67471;44.918;8.614;2023-12-20T16:07:46;47.85;;;31.52;;
77055;SDS011;67471;44.918;8.614;2023-12-20T16:10:49;45.85;;;31.52;;
77055;SDS011;67471;44.918;8.614;2023-12-20T16:13:53;45.70;;;30.70;;
77055;SDS011;67471;44.918;8.614;2023-12-20T16:16:57;43.67;;;30.00;;
77055;SDS011;67471;44.918;8.614;2023-12-20T16:20:02;41.75;;;28.90;;
77055;SDS011;67471;44.918;8.614;2023-12-20T16:23:06;49.15;;;31.40;;
77055;SDS011;67471;44.918;8.614;2023-12-20T16:26:11;48.75;;;31.10;;
77055;SDS011;67471;44.918;8.614;2023-12-20T16:29:16;51.97;;;33.05;;
77055;SDS011;67471;44.918;8.614;2023-12-20T16:32:20;52.63;;;33.42;;
77055;SDS011;67471;44.918;8.614;2023-12-20T16:35:24;49.47;;;32.58;;
77055;SDS011;67471;44.918;8.614;2023-12-20T16:38:28;53.30;;;34.05;;
77055;SDS011;67471;44.918;8.614;2023-12-20T16:41:31;56.17;;;33.97;;
77055;SDS011;67471;44.918;8.614;2023-12-20T16:44:35;54.30;;;33.60;;
77055;SDS011;67471;44.918;8.614;2023-12-20T16:47:39;60.78;;;35.63;;
77055;SDS011;67471;44.918;8.614;2023-12-20T16:50:43;50.47;;;32.80;;
77055;SDS011;67471;44.918;8.614;2023-12-20T16:53:47;48.65;;;31.63;;
77055;SDS011;67471;44.918;8.614;2023-12-20T16:56:51;53.63;;;32.28;;
77055;SDS011;67471;44.918;8.614;2023-12-20T16:59:55;51.85;;;31.88;;
77055;SDS011;67471;44.918;8.614;2023-12-20T17:02:59;49.28;;;33.13;;
77055;SDS011;67471;44.918;8.614;2023-12-20T17:06:03;52.13;;;32.60;;
77055;SDS011;67471;44.918;8.614;2023-12-20T17:09:07;48.40;;;31.75;;
77055;SDS011;67471;44.918;8.614;2023-12-20T17:12:11;53.42;;;33.30;;
77055;SDS011;67471;44.918;8.614;2023-12-20T17:15:14;49.90;;;32.00;;
77055;SDS011;67471;44.918;8.614;2023-12-20T17:18:18;45.92;;;32.28;;
77055;SDS011;67471;44.918;8.614;2023-12-20T17:21:22;53.53;;;32.65;;
77055;SDS011;67471;44.918;8.614;2023-12-20T17:24:26;51.33;;;32.83;;
77055;SDS011;67471;44.918;8.614;2023-12-20T17:27:30;45.90;;;30.48;;
77055;SDS011;67471;44.918;8.614;2023-12-20T17:30:34;47.10;;;31.85;;
77055;SDS011;67471;44.918;8.614;2023-12-20T17:33:38;47.83;;;30.58;;
77055;SDS011;67471;44.918;8.614;2023-12-20T17:36:42;51.70;;;32.45;;
77055;SDS011;67471;44.918;8.614;2023-12-20T17:39:47;51.55;;;37.13;;
77055;SDS011;67471;44.918;8.614;2023-12-20T17:42:50;58.38;;;41.88;;
77055;SDS011;67471;44.918;8.614;2023-12-20T17:45:54;61.58;;;43.20;;
77055;SDS011;67471;44.918;8.614;2023-12-20T17:48:58;56.97;;;40.55;;
77055;SDS011;67471;44.918;8.614;2023-12-20T17:52:04;53.45;;;35.83;;
77055;SDS011;67471;44.918;8.614;2023-12-20T17:55:09;53.33;;;36.53;;
77055;SDS011;67471;44.918;8.614;2023-12-20T17:58:13;51.65;;;33.00;;
77055;SDS011;67471;44.918;8.614;2023-12-20T18:01:16;49.63;;;32.63;;
77055;SDS011;67471;44.918;8.614;2023-12-20T18:04:20;55.45;;;30.73;;
77055;SDS011;67471;44.918;8.614;2023-12-20T18:07:25;46.38;;;32.03;;